Time;durP1;ratioP1;P1;durP2;ratioP2;P2;SDS_P1;SDS_P2;PMS_P1;PMS_P2;Temp;Humidity;BMP_temperature;BMP_pressure;BME280_temperature;BME280_humidity;BME280_pressure;Samples;Min_cycle;Max_cycle;Signal;HPM_P1;HPM_P2
2023/09/02 00:01:50;;;;;;;2.33;1.67;;;15.10;99.90;;;;;;5029643;28;20461;-68
2023/09/02 00:04:17;;;;;;;3.53;1.97;;;15.10;99.90;;;;;;5029857;28;20468;-68
2023/09/02 00:06:44;;;;;;;1.90;1.63;;;15.10;99.90;;;;;;5029671;28;20460;-68
2023/09/02 00:09:10;;;;;;;1.60;1.40;;;15.10;99.90;;;;;;5029842;28;20853;-68
2023/09/02 00:11:39;;;;;;;2.37;1.50;;;15.10;99.90;;;;;;5029641;28;20461;-68
2023/09/02 00:14:05;;;;;;;1.93;1.63;;;15.10;99.90;;;;;;5029604;28;20461;-68
2023/09/02 00:16:32;;;;;;;1.80;1.53;;;15.00;99.90;;;;;;5030093;28;21071;-68
2023/09/02 00:18:59;;;;;;;2.27;1.80;;;15.00;99.90;;;;;;5029615;28;20480;-68
2023/09/02 00:21:25;;;;;;;2.17;1.60;;;15.00;99.90;;;;;;5029574;28;20456;-68
2023/09/02 00:24:03;;;;;;;2.37;1.70;;;15.00;99.90;;;;;;5029430;28;20582;-68
2023/09/02 00:26:31;;;;;;;1.77;1.50;;;15.00;99.90;;;;;;5029907;28;20455;-68
2023/09/02 00:29:00;;;;;;;3.17;2.03;;;15.00;99.90;;;;;;5029509;28;20484;-68
2023/09/02 00:31:27;;;;;;;2.70;2.27;;;14.90;99.90;;;;;;5030021;28;20457;-68
2023/09/02 00:33:54;;;;;;;2.70;1.57;;;14.90;99.90;;;;;;5029802;28;20459;-68
2023/09/02 00:36:21;;;;;;;3.10;2.07;;;14.90;99.90;;;;;;5030062;28;20453;-68
2023/09/02 00:38:48;;;;;;;2.47;1.70;;;14.90;99.90;;;;;;5029595;28;20452;-68
2023/09/02 00:41:23;;;;;;;1.80;1.43;;;14.80;99.90;;;;;;5029938;28;20503;-68
2023/09/02 00:43:50;;;;;;;1.60;1.50;;;14.80;99.90;;;;;;5029376;28;20463;-67
2023/09/02 00:46:18;;;;;;;2.03;1.50;;;14.80;99.90;;;;;;5030016;28;20461;-68
2023/09/02 00:48:45;;;;;;;1.90;1.80;;;14.80;99.90;;;;;;5029531;28;20457;-68
2023/09/02 00:51:12;;;;;;;1.50;1.40;;;14.80;99.90;;;;;;5029668;28;20468;-68
2023/09/02 00:53:38;;;;;;;2.00;1.30;;;14.80;99.90;;;;;;5029364;28;20460;-68
2023/09/02 00:56:05;;;;;;;2.10;1.47;;;14.80;99.90;;;;;;5029647;28;20456;-68
2023/09/02 00:58:32;;;;;;;3.83;2.27;;;14.70;99.90;;;;;;5029446;28;20470;-68
2023/09/02 01:01:00;;;;;;;2.80;1.40;;;14.70;99.90;;;;;;5029587;28;20480;-68
2023/09/02 01:03:28;;;;;;;1.70;1.60;;;14.70;99.90;;;;;;5029309;28;21124;-68
2023/09/02 01:05:55;;;;;;;1.90;1.70;;;14.70;99.90;;;;;;5029512;28;20459;-68
2023/09/02 01:08:22;;;;;;;1.60;1.40;;;14.70;99.90;;;;;;5029545;28;20456;-68
2023/09/02 01:10:49;;;;;;;1.67;1.40;;;14.60;99.90;;;;;;5029503;28;20476;-68
2023/09/02 01:13:16;;;;;;;3.20;1.80;;;14.60;99.90;;;;;;5029378;28;20456;-68
2023/09/02 01:15:43;;;;;;;2.63;1.37;;;14.60;99.90;;;;;;5029540;28;20468;-68
2023/09/02 01:18:09;;;;;;;2.00;1.60;;;14.60;99.90;;;;;;5032004;28;20944;-68
2023/09/02 01:20:52;;;;;;;1.67;1.23;;;14.60;99.90;;;;;;5032832;28;20516;-68
2023/09/02 01:23:47;;;;;;;1.53;1.43;;;14.50;99.90;;;;;;5032876;28;20460;-68
2023/09/02 01:26:30;;;;;;;1.50;1.40;;;14.50;99.90;;;;;;5020116;28;20465;-68
2023/09/02 01:29:02;;;;;;;1.30;1.20;;;14.50;99.90;;;;;;5032562;28;20479;-67
2023/09/02 01:31:30;;;;;;;2.63;2.10;;;14.50;99.90;;;;;;5032652;28;20928;-68
2023/09/02 01:33:59;;;;;;;1.97;1.77;;;14.50;99.90;;;;;;5032702;28;20966;-67
2023/09/02 01:36:28;;;;;;;1.90;1.50;;;14.40;99.90;;;;;;5032841;28;20464;-68
2023/09/02 01:38:57;;;;;;;1.73;1.40;;;14.40;99.90;;;;;;5032253;28;20480;-68
2023/09/02 01:41:25;;;;;;;3.30;2.10;;;14.40;99.90;;;;;;5032682;28;20480;-68
2023/09/02 01:43:55;;;;;;;1.30;1.20;;;14.40;99.90;;;;;;5032275;28;20490;-68
2023/09/02 01:46:23;;;;;;;1.80;1.40;;;14.40;99.90;;;;;;5032674;28;20457;-68
2023/09/02 01:48:50;;;;;;;1.63;1.40;;;14.40;99.90;;;;;;5032505;28;20465;-68
2023/09/02 01:51:18;;;;;;;2.10;1.90;;;14.30;99.90;;;;;;5032358;28;20455;-68
2023/09/02 01:53:45;;;;;;;1.40;1.30;;;14.30;99.90;;;;;;5031939;28;20499;-68
2023/09/02 01:56:13;;;;;;;2.43;1.40;;;14.30;99.90;;;;;;5032409;28;20501;-68
2023/09/02 01:58:39;;;;;;;1.53;1.30;;;14.30;99.90;;;;;;5032148;28;20456;-68
2023/09/02 02:01:06;;;;;;;1.77;1.60;;;14.20;99.90;;;;;;5032281;28;21201;-68
2023/09/02 02:03:39;;;;;;;2.07;1.97;;;14.20;99.90;;;;;;5031837;28;20464;-68
2023/09/02 02:06:09;;;;;;;2.07;1.87;;;14.20;99.90;;;;;;5032392;28;20453;-68
2023/09/02 02:08:44;;;;;;;1.83;1.70;;;14.20;99.90;;;;;;5031797;28;20510;-67
2023/09/02 02:11:12;;;;;;;2.03;1.63;;;14.20;99.90;;;;;;5032334;28;20473;-68
2023/09/02 02:13:39;;;;;;;1.93;1.60;;;14.10;99.90;;;;;;5031688;28;20463;-68
2023/09/02 02:16:06;;;;;;;1.97;1.60;;;14.10;99.90;;;;;;5032049;28;20457;-68
2023/09/02 02:18:34;;;;;;;2.40;1.80;;;14.10;99.90;;;;;;5031717;28;20492;-67
2023/09/02 02:21:03;;;;;;;2.40;1.50;;;14.10;99.90;;;;;;5031905;28;20855;-68
2023/09/02 02:23:30;;;;;;;1.80;1.60;;;14.10;99.90;;;;;;5031442;28;20460;-68
2023/09/02 02:26:00;;;;;;;3.37;1.83;;;14.10;99.90;;;;;;5031900;28;20475;-68
2023/09/02 02:28:26;;;;;;;2.07;1.87;;;14.10;99.90;;;;;;5031341;28;20453;-68
2023/09/02 02:30:53;;;;;;;1.80;1.67;;;14.10;99.90;;;;;;5031688;28;20984;-68
2023/09/02 02:33:20;;;;;;;1.67;1.57;;;14.00;99.90;;;;;;5031319;28;20855;-68
2023/09/02 02:35:48;;;;;;;1.60;1.30;;;14.00;99.90;;;;;;5031581;28;20467;-68
2023/09/02 02:38:14;;;;;;;3.67;1.90;;;14.00;99.90;;;;;;5031265;28;20979;-68
2023/09/02 02:40:41;;;;;;;1.53;1.40;;;14.00;99.90;;;;;;5031380;28;20482;-68
2023/09/02 02:43:08;;;;;;;1.93;1.57;;;14.00;99.90;;;;;;5031204;28;20484;-68
2023/09/02 02:45:35;;;;;;;1.80;1.47;;;13.90;99.90;;;;;;5031456;28;20807;-68
2023/09/02 02:48:01;;;;;;;1.87;1.53;;;13.90;99.90;;;;;;5031265;28;20462;-68
2023/09/02 02:50:28;;;;;;;2.00;1.60;;;13.90;99.90;;;;;;5031470;28;20477;-68
2023/09/02 02:52:56;;;;;;;1.40;1.13;;;13.90;99.90;;;;;;5030988;28;20456;-68
2023/09/02 02:55:23;;;;;;;3.03;1.63;;;13.90;99.90;;;;;;5031115;28;20811;-68
2023/09/02 02:57:49;;;;;;;1.90;1.80;;;13.90;99.90;;;;;;5031164;28;20467;-68
2023/09/02 03:00:16;;;;;;;1.77;1.67;;;13.80;99.90;;;;;;5030958;28;20491;-68
2023/09/02 03:02:43;;;;;;;1.90;1.30;;;13.80;99.90;;;;;;5030900;28;20454;-68
2023/09/02 03:05:10;;;;;;;7.23;1.80;;;13.80;99.90;;;;;;5030995;28;20466;-67
2023/09/02 03:07:39;;;;;;;1.50;1.27;;;13.80;99.90;;;;;;5031088;28;20460;-68
2023/09/02 03:10:08;;;;;;;1.43;1.33;;;13.80;99.90;;;;;;5030669;28;20484;-68
2023/09/02 03:12:35;;;;;;;1.67;1.30;;;13.70;99.90;;;;;;5030599;28;20535;-68
2023/09/02 03:15:01;;;;;;;2.63;1.83;;;13.80;99.90;;;;;;5030875;28;20459;-68
2023/09/02 03:17:28;;;;;;;1.97;1.77;;;13.70;99.90;;;;;;5030954;28;20459;-68
2023/09/02 03:19:55;;;;;;;2.10;1.73;;;13.70;99.90;;;;;;5030611;28;20482;-68
2023/09/02 03:22:21;;;;;;;2.00;1.60;;;13.70;99.90;;;;;;5030424;28;20457;-68
2023/09/02 03:24:52;;;;;;;2.67;1.70;;;13.70;99.90;;;;;;5030696;28;20554;-68
2023/09/02 03:29:58;;;;;;;1.93;1.40;;;13.60;99.90;;;;;;5028201;28;20838;-67
2023/09/02 03:32:26;;;;;;;3.47;1.70;;;13.60;99.90;;;;;;5030266;28;20458;-66
2023/09/02 03:34:53;;;;;;;2.60;1.47;;;13.60;99.90;;;;;;5030577;28;20458;-67
2023/09/02 03:37:20;;;;;;;1.60;1.50;;;13.60;99.90;;;;;;5030406;28;21035;-65
2023/09/02 03:39:47;;;;;;;3.47;1.77;;;13.60;99.90;;;;;;5029614;28;20474;-65
2023/09/02 03:42:13;;;;;;;1.97;1.60;;;13.60;99.90;;;;;;5030140;28;20489;-65
2023/09/02 03:44:41;;;;;;;2.10;1.40;;;13.50;99.90;;;;;;5030550;28;20458;-65
2023/09/02 03:47:07;;;;;;;1.90;1.70;;;13.60;99.90;;;;;;5030410;28;20458;-66
2023/09/02 03:49:34;;;;;;;1.57;1.47;;;13.50;99.90;;;;;;5030322;28;20492;-66
2023/09/02 03:52:00;;;;;;;1.93;1.70;;;13.50;99.90;;;;;;5030083;28;20202;-66
2023/09/02 03:54:27;;;;;;;3.97;1.90;;;13.50;99.90;;;;;;5030119;28;20467;-66
2023/09/02 03:56:54;;;;;;;2.43;1.67;;;13.50;99.90;;;;;;5030361;28;20208;-66
2023/09/02 03:59:20;;;;;;;2.03;1.83;;;13.50;99.90;;;;;;5030044;28;20485;-66
2023/09/02 04:01:48;;;;;;;1.83;1.27;;;13.50;99.90;;;;;;5029778;28;21012;-65
2023/09/02 04:04:15;;;;;;;2.03;1.80;;;13.40;99.90;;;;;;5030091;28;20459;-65
2023/09/02 04:06:42;;;;;;;1.63;1.50;;;13.40;99.90;;;;;;5030140;28;20468;-66
2023/09/02 04:09:09;;;;;;;1.60;1.30;;;13.40;99.90;;;;;;5029971;28;20478;-65
2023/09/02 04:11:36;;;;;;;2.10;1.43;;;13.40;99.90;;;;;;5029987;28;20522;-65
2023/09/02 04:14:03;;;;;;;1.90;1.70;;;13.40;99.90;;;;;;5030552;28;20455;-65
2023/09/02 04:16:30;;;;;;;5.50;1.83;;;13.40;99.90;;;;;;5029999;28;20551;-65
2023/09/02 04:19:02;;;;;;;2.60;1.70;;;13.40;99.90;;;;;;5029840;28;20479;-66
2023/09/02 04:21:29;;;;;;;2.20;1.73;;;13.40;99.90;;;;;;5029925;28;21052;-66
2023/09/02 04:23:56;;;;;;;1.73;1.37;;;13.40;99.90;;;;;;5029920;28;20479;-66
2023/09/02 04:26:23;;;;;;;2.17;1.67;;;13.40;99.90;;;;;;5029978;28;20463;-65
2023/09/02 04:28:50;;;;;;;2.60;1.67;;;13.30;99.90;;;;;;5029689;28;20457;-66
2023/09/02 04:31:17;;;;;;;1.50;1.40;;;13.30;99.90;;;;;;5029953;28;20454;-65
2023/09/02 04:33:43;;;;;;;3.70;1.80;;;13.30;99.90;;;;;;5029509;28;20467;-65
2023/09/02 04:36:12;;;;;;;1.93;1.77;;;13.30;99.90;;;;;;5029858;28;20906;-65
2023/09/02 04:38:38;;;;;;;1.50;1.40;;;13.30;99.90;;;;;;5029749;28;20457;-66
2023/09/02 04:41:06;;;;;;;1.90;1.80;;;13.30;99.90;;;;;;5029983;28;20486;-65
2023/09/02 04:43:33;;;;;;;1.87;1.77;;;13.30;99.90;;;;;;5029499;28;20453;-66
2023/09/02 04:46:02;;;;;;;1.90;1.40;;;13.30;99.90;;;;;;5029860;28;20484;-65
2023/09/02 04:48:29;;;;;;;2.40;1.88;;;13.30;99.90;;;;;;5029433;28;20467;-66
2023/09/02 04:50:57;;;;;;;1.60;1.45;;;13.30;99.90;;;;;;5030569;28;20725;-65
2023/09/02 04:53:25;;;;;;;3.50;1.87;;;13.40;99.90;;;;;;5033205;28;20199;-66
2023/09/02 04:55:52;;;;;;;1.60;1.50;;;13.50;99.90;;;;;;5033596;28;20462;-66
2023/09/02 04:58:20;;;;;;;2.10;1.73;;;13.60;99.90;;;;;;5033431;28;20468;-65
2023/09/02 05:00:47;;;;;;;1.90;1.73;;;13.60;99.90;;;;;;5032991;28;20486;-65
2023/09/02 05:03:13;;;;;;;2.40;1.87;;;13.60;99.90;;;;;;5032719;28;20468;-65
2023/09/02 05:05:41;;;;;;;1.83;1.73;;;13.60;99.90;;;;;;5033275;28;20930;-66
2023/09/02 05:08:08;;;;;;;2.20;1.97;;;13.60;99.90;;;;;;5032924;28;20454;-65
2023/09/02 05:10:36;;;;;;;1.70;1.60;;;13.50;99.90;;;;;;5032935;28;20486;-65
2023/09/02 05:13:03;;;;;;;1.40;1.20;;;13.50;99.90;;;;;;5032642;28;20454;-66
2023/09/02 05:15:30;;;;;;;1.87;1.77;;;13.50;99.90;;;;;;5030047;28;20512;-66
2023/09/02 05:17:58;;;;;;;1.50;1.40;;;13.50;99.90;;;;;;5030739;28;21047;-66
2023/09/02 05:20:24;;;;;;;2.70;1.93;;;13.50;99.90;;;;;;5031267;28;20479;-66
2023/09/02 05:22:51;;;;;;;4.53;2.17;;;13.50;99.90;;;;;;5032069;28;20997;-65
2023/09/02 05:25:18;;;;;;;3.17;1.97;;;13.60;99.90;;;;;;5032768;28;20208;-65
2023/09/02 05:27:48;;;;;;;3.43;2.03;;;13.60;99.90;;;;;;5032821;28;20463;-66
2023/09/02 05:30:15;;;;;;;2.47;1.67;;;13.60;99.90;;;;;;5032817;28;20498;-65
2023/09/02 05:32:42;;;;;;;2.00;1.70;;;13.60;99.90;;;;;;5032497;28;20946;-66
2023/09/02 05:35:09;;;;;;;4.00;2.20;;;13.70;99.90;;;;;;5032897;28;20462;-65
2023/09/02 05:37:35;;;;;;;2.40;1.87;;;13.70;99.90;;;;;;5032578;28;20542;-65
2023/09/02 05:40:03;;;;;;;2.63;1.60;;;13.70;99.90;;;;;;5032615;28;20476;-65
2023/09/02 05:42:29;;;;;;;2.10;1.83;;;13.70;99.90;;;;;;5031834;28;20509;-66
2023/09/02 05:44:57;;;;;;;2.00;1.77;;;13.80;99.90;;;;;;5032275;28;20470;-66
2023/09/02 05:47:24;;;;;;;1.43;1.20;;;13.80;99.90;;;;;;5032573;28;20462;-66
2023/09/02 05:49:51;;;;;;;2.67;1.50;;;13.80;99.90;;;;;;5032154;28;20483;-65
2023/09/02 05:52:17;;;;;;;2.27;1.73;;;13.90;99.90;;;;;;5032047;28;20467;-66
2023/09/02 05:54:44;;;;;;;2.43;1.60;;;13.90;99.90;;;;;;5032284;28;20458;-66
2023/09/02 05:57:11;;;;;;;2.27;2.07;;;13.90;99.90;;;;;;5030950;28;20460;-65
2023/09/02 05:59:38;;;;;;;2.37;1.93;;;14.00;99.90;;;;;;5030574;28;20483;-65
2023/09/02 06:02:06;;;;;;;1.40;1.30;;;14.00;99.90;;;;;;5031038;28;20514;-66
2023/09/02 06:04:33;;;;;;;1.70;1.60;;;14.10;99.90;;;;;;5031735;28;20832;-66
2023/09/02 06:06:59;;;;;;;2.23;2.03;;;14.20;99.90;;;;;;5032235;28;20470;-65
2023/09/02 06:09:27;;;;;;;2.13;1.70;;;14.20;99.90;;;;;;5031884;28;20881;-65
2023/09/02 06:11:53;;;;;;;2.30;1.80;;;14.30;99.90;;;;;;5031908;28;20495;-66
2023/09/02 06:14:20;;;;;;;2.07;1.87;;;14.40;99.90;;;;;;5031991;28;20534;-65
2023/09/02 06:16:47;;;;;;;2.67;1.90;;;14.40;99.90;;;;;;5032065;28;20865;-66
2023/09/02 06:19:15;;;;;;;1.73;1.63;;;14.50;99.90;;;;;;5031976;28;20484;-65
2023/09/02 06:21:42;;;;;;;2.40;1.80;;;14.60;99.90;;;;;;5031427;28;20483;-66
2023/09/02 06:24:09;;;;;;;2.23;1.90;;;14.70;99.90;;;;;;5032084;28;20878;-65
2023/09/02 06:26:36;;;;;;;1.73;1.63;;;14.80;99.90;;;;;;5031728;28;20453;-66
2023/09/02 06:29:03;;;;;;;5.07;2.40;;;14.90;99.90;;;;;;5031589;28;20484;-66
2023/09/02 06:31:29;;;;;;;2.80;1.93;;;15.00;99.90;;;;;;5031727;28;21033;-65
2023/09/02 06:33:56;;;;;;;2.20;1.90;;;15.10;99.90;;;;;;5031525;28;20997;-66
2023/09/02 06:36:24;;;;;;;2.53;1.97;;;15.20;99.90;;;;;;5031603;28;20457;-66
2023/09/02 06:38:51;;;;;;;2.80;2.50;;;15.40;99.90;;;;;;5031194;28;20826;-66
2023/09/02 06:41:18;;;;;;;2.73;2.07;;;15.50;99.90;;;;;;5031855;28;20550;-65
2023/09/02 06:43:45;;;;;;;3.23;2.60;;;15.60;99.90;;;;;;5030921;28;20463;-65
2023/09/02 06:46:14;;;;;;;2.73;2.07;;;15.70;99.90;;;;;;5031568;28;20978;-65
2023/09/02 06:48:41;;;;;;;2.13;1.90;;;15.80;99.90;;;;;;5030958;28;20464;-66
2023/09/02 06:51:08;;;;;;;2.43;2.23;;;16.00;99.90;;;;;;5031659;28;20461;-66
2023/09/02 06:53:36;;;;;;;3.23;2.50;;;16.10;99.90;;;;;;5030936;28;20448;-66
2023/09/02 06:56:05;;;;;;;3.33;2.28;;;16.20;99.90;;;;;;5030491;28;20460;-65
2023/09/02 06:58:32;;;;;;;5.53;2.40;;;16.40;99.90;;;;;;5030613;28;20203;-67
2023/09/02 07:00:59;;;;;;;1.97;1.83;;;16.50;99.90;;;;;;5031168;28;20456;-65
2023/09/02 07:03:25;;;;;;;1.80;1.70;;;16.70;99.90;;;;;;5021895;28;21023;-66
2023/09/02 07:05:52;;;;;;;2.57;2.30;;;16.80;99.90;;;;;;5030969;28;20462;-66
2023/09/02 07:08:19;;;;;;;2.60;2.40;;;17.00;99.90;;;;;;5030888;28;20456;-66
2023/09/02 07:10:47;;;;;;;2.17;1.93;;;17.10;99.90;;;;;;5030470;28;20485;-66
2023/09/02 07:13:14;;;;;;;2.60;2.27;;;17.30;99.90;;;;;;5030361;28;21218;-66
2023/09/02 07:15:40;;;;;;;2.43;2.00;;;17.40;99.90;;;;;;5030391;28;20457;-65
2023/09/02 07:18:07;;;;;;;2.60;1.87;;;17.50;99.90;;;;;;5030684;28;20460;-66
2023/09/02 07:20:37;;;;;;;2.43;2.23;;;17.60;99.90;;;;;;5030504;28;20482;-65
2023/09/02 07:23:04;;;;;;;2.10;1.87;;;17.70;99.90;;;;;;5030291;28;20485;-65
2023/09/02 07:25:31;;;;;;;4.13;2.20;;;17.90;99.90;;;;;;5030500;28;20465;-65
2023/09/02 07:27:59;;;;;;;2.70;1.77;;;18.10;99.90;;;;;;5030276;28;20466;-67
2023/09/02 07:30:25;;;;;;;2.37;2.10;;;18.30;99.90;;;;;;5030230;28;21004;-66
2023/09/02 07:32:52;;;;;;;3.20;2.07;;;18.40;99.90;;;;;;5030005;28;20459;-66
2023/09/02 07:35:19;;;;;;;3.20;2.10;;;18.60;99.90;;;;;;5030505;28;20461;-66
2023/09/02 07:37:45;;;;;;;1.90;1.73;;;18.70;99.90;;;;;;5029927;28;20461;-64
2023/09/02 07:40:12;;;;;;;2.00;1.70;;;18.80;99.90;;;;;;5030542;28;20483;-66
2023/09/02 07:42:39;;;;;;;1.73;1.63;;;18.90;99.90;;;;;;5030029;28;21010;-65
2023/09/02 07:45:09;;;;;;;2.50;2.10;;;19.00;99.90;;;;;;5030372;28;20453;-66
2023/09/02 07:47:36;;;;;;;1.70;1.50;;;19.10;99.90;;;;;;5030199;28;20458;-65
2023/09/02 07:50:03;;;;;;;5.70;2.10;;;19.30;99.90;;;;;;5030150;28;20491;-65
2023/09/02 07:52:30;;;;;;;2.40;2.20;;;19.40;99.90;;;;;;5046810;28;20466;-65
2023/09/02 07:54:57;;;;;;;1.83;1.60;;;19.50;99.90;;;;;;5050313;28;20521;-67
2023/09/02 07:57:24;;;;;;;2.17;1.67;;;19.60;99.90;;;;;;5050472;28;21018;-65
2023/09/02 07:59:50;;;;;;;1.67;1.57;;;19.70;99.90;;;;;;5049397;28;20470;-66
2023/09/02 08:02:18;;;;;;;1.63;1.40;;;19.80;99.90;;;;;;5049694;28;20485;-65
2023/09/02 08:04:45;;;;;;;1.97;1.87;;;19.80;99.90;;;;;;5049676;28;20975;-66
2023/09/02 08:07:12;;;;;;;3.00;2.17;;;20.00;99.90;;;;;;5049948;28;20470;-65
2023/09/02 08:09:38;;;;;;;2.13;1.70;;;20.10;99.90;;;;;;5027744;28;20476;-64
2023/09/02 08:12:05;;;;;;;1.67;1.57;;;20.20;99.90;;;;;;5029244;28;20459;-64
2023/09/02 08:14:32;;;;;;;1.80;1.70;;;20.40;99.90;;;;;;5016202;28;20461;-65
2023/09/02 08:16:59;;;;;;;2.30;2.10;;;20.50;99.90;;;;;;5026131;28;20997;-66
2023/09/02 08:19:31;;;;;;;2.70;1.80;;;20.60;99.90;;;;;;5023130;28;20866;-66
2023/09/02 08:21:58;;;;;;;2.20;2.00;;;20.70;99.90;;;;;;5024522;28;21067;-66
2023/09/02 08:24:24;;;;;;;2.20;1.73;;;20.80;99.90;;;;;;5024371;28;20463;-65
2023/09/02 08:26:51;;;;;;;2.80;2.10;;;20.90;99.90;;;;;;5030281;28;20467;-64
2023/09/02 08:29:18;;;;;;;2.67;2.20;;;20.90;99.90;;;;;;5031841;28;20563;-65
2023/09/02 08:31:45;;;;;;;1.83;1.73;;;21.00;99.90;;;;;;5027186;28;20472;-65
2023/09/02 08:34:11;;;;;;;1.90;1.70;;;21.00;99.90;;;;;;5017912;28;20556;-65
2023/09/02 08:36:40;;;;;;;2.30;1.77;;;21.10;99.90;;;;;;5020815;28;20458;-65
2023/09/02 08:39:06;;;;;;;1.67;1.30;;;21.20;99.90;;;;;;5026266;28;20533;-65
2023/09/02 08:41:36;;;;;;;1.63;1.50;;;21.30;99.90;;;;;;5020292;28;20488;-65
2023/09/02 08:44:04;;;;;;;3.67;1.73;;;21.40;99.90;;;;;;5016976;28;20837;-65
2023/09/02 08:46:33;;;;;;;1.93;1.53;;;21.50;99.90;;;;;;5021082;28;20477;-65
2023/09/02 08:49:00;;;;;;;1.90;1.70;;;21.70;99.90;;;;;;5028328;28;20551;-65
2023/09/02 08:51:28;;;;;;;3.97;1.90;;;21.80;99.90;;;;;;5027118;28;20458;-65
2023/09/02 08:53:57;;;;;;;2.07;1.70;;;21.90;99.90;;;;;;5025718;28;20460;-65
2023/09/02 08:56:25;;;;;;;1.90;1.70;;;22.10;99.90;;;;;;5032882;28;20981;-64
2023/09/02 08:58:54;;;;;;;2.00;1.80;;;22.20;99.90;;;;;;5038537;28;20550;-65
2023/09/02 09:01:22;;;;;;;1.83;1.70;;;22.40;99.90;;;;;;5053109;28;20465;-65
2023/09/02 09:03:53;;;;;;;1.70;1.60;;;22.50;99.90;;;;;;5032604;28;20570;-65
2023/09/02 09:06:21;;;;;;;3.73;2.03;;;22.60;99.90;;;;;;5039316;28;20460;-65
2023/09/02 09:08:50;;;;;;;2.27;1.70;;;22.70;99.90;;;;;;5050320;28;20557;-64
2023/09/02 09:11:19;;;;;;;1.70;1.40;;;22.80;99.90;;;;;;5052512;28;20520;-65
2023/09/02 09:13:49;;;;;;;1.87;1.50;;;23.00;99.90;;;;;;5051217;28;20510;-65
2023/09/02 09:16:21;;;;;;;1.67;1.43;;;23.10;99.90;;;;;;5052301;28;20461;-65
2023/09/02 09:18:50;;;;;;;1.87;1.60;;;23.30;99.90;;;;;;5043219;28;20463;-65
2023/09/02 09:21:17;;;;;;;2.03;1.70;;;23.30;99.90;;;;;;5032534;28;20467;-65
2023/09/02 09:23:44;;;;;;;2.60;2.00;;;23.40;99.90;;;;;;5031770;28;20463;-65
2023/09/02 09:26:12;;;;;;;3.93;1.57;;;23.50;99.90;;;;;;5031822;28;20464;-65
2023/09/02 09:28:53;;;;;;;2.13;1.60;;;23.60;99.90;;;;;;5028482;28;20465;-65
2023/09/02 09:31:21;;;;;;;3.07;2.07;;;23.70;99.90;;;;;;5027990;28;20498;-65
2023/09/02 09:33:53;;;;;;;2.40;2.03;;;23.90;99.90;;;;;;5023041;28;20602;-66
2023/09/02 09:36:22;;;;;;;2.93;2.00;;;24.00;99.90;;;;;;5028217;28;20851;-64
2023/09/02 09:38:49;;;;;;;2.33;1.83;;;24.10;99.90;;;;;;5020951;28;20863;-64
2023/09/02 09:41:16;;;;;;;1.73;1.57;;;24.20;99.90;;;;;;5025906;28;20465;-65
2023/09/02 09:43:43;;;;;;;2.83;1.90;;;24.30;99.90;;;;;;5013276;28;20469;-64
2023/09/02 09:46:15;;;;;;;1.73;1.40;;;24.20;99.90;;;;;;5032053;28;20468;-65
2023/09/02 09:48:49;;;;;;;2.67;1.77;;;24.30;99.90;;;;;;5030280;28;20460;-65
2023/09/02 09:51:23;;;;;;;1.60;1.47;;;24.50;99.90;;;;;;5030251;28;20471;-65
2023/09/02 09:53:51;;;;;;;1.93;1.70;;;24.60;99.90;;;;;;5020672;28;20598;-65
2023/09/02 09:56:18;;;;;;;1.40;1.30;;;24.60;99.90;;;;;;5021230;28;20540;-64
2023/09/02 09:58:46;;;;;;;2.00;1.50;;;24.60;99.90;;;;;;5027399;28;20467;-65
2023/09/02 10:01:23;;;;;;;3.13;1.63;;;24.70;99.90;;;;;;5031234;28;20461;-66
2023/09/02 10:03:51;;;;;;;1.90;1.80;;;24.90;99.90;;;;;;5028652;28;20464;-65
2023/09/02 10:06:19;;;;;;;1.50;1.40;;;25.10;99.90;;;;;;5025828;28;20492;-65
2023/09/02 10:08:50;;;;;;;1.70;1.50;;;25.20;99.90;;;;;;5030260;28;20461;-65
2023/09/02 10:11:26;;;;;;;1.40;1.30;;;25.10;99.90;;;;;;5024545;28;20882;-65
2023/09/02 10:13:53;;;;;;;1.90;1.70;;;25.20;99.90;;;;;;5029254;28;21173;-65
2023/09/02 10:16:22;;;;;;;1.40;1.17;;;25.10;99.90;;;;;;5024406;28;20465;-65
2023/09/02 10:18:50;;;;;;;2.30;1.37;;;25.10;99.90;;;;;;5026977;28;20476;-65
2023/09/02 10:21:18;;;;;;;2.53;1.60;;;25.20;99.90;;;;;;5031089;28;20471;-65
2023/09/02 10:23:50;;;;;;;2.03;1.73;;;25.30;99.90;;;;;;5030162;28;20460;-65
2023/09/02 10:26:22;;;;;;;1.90;1.57;;;25.50;99.90;;;;;;5030538;28;20468;-65
2023/09/02 10:28:50;;;;;;;2.13;1.50;;;25.60;99.90;;;;;;5029863;28;20456;-65
2023/09/02 10:31:22;;;;;;;2.07;1.37;;;25.80;99.90;;;;;;5030725;28;20542;-65
2023/09/02 10:33:57;;;;;;;1.93;1.70;;;25.90;99.90;;;;;;5029243;28;20524;-66
2023/09/02 10:36:28;;;;;;;1.70;1.30;;;26.00;99.90;;;;;;5030554;28;20951;-65
2023/09/02 10:38:59;;;;;;;1.57;1.33;;;26.00;99.90;;;;;;5029761;28;20517;-65
2023/09/02 10:41:27;;;;;;;1.83;1.73;;;26.10;99.90;;;;;;5035941;28;20464;-66
2023/09/02 10:43:55;;;;;;;1.90;1.60;;;26.30;99.90;;;;;;5037992;28;20835;-66
2023/09/02 10:46:25;;;;;;;1.70;1.60;;;26.30;99.90;;;;;;5118429;22;20496;-66
2023/09/02 10:48:52;;;;;;;2.03;1.43;;;26.40;99.90;;;;;;5049837;28;20458;-67
2023/09/02 10:51:19;;;;;;;1.53;1.20;;;26.30;99.90;;;;;;5052111;28;20448;-66
2023/09/02 10:54:01;;;;;;;2.60;1.40;;;26.30;99.90;;;;;;5049394;28;20483;-66
2023/09/02 10:56:30;;;;;;;1.47;1.37;;;26.40;99.90;;;;;;5050777;28;21199;-66
2023/09/02 10:58:57;;;;;;;2.40;1.80;;;26.40;99.90;;;;;;5050403;28;20479;-66
2023/09/02 11:01:25;;;;;;;3.23;1.37;;;26.50;99.90;;;;;;5050722;28;20456;-66
2023/09/02 11:03:54;;;;;;;2.80;1.47;;;26.70;99.90;;;;;;5050207;28;20459;-67
2023/09/02 11:06:21;;;;;;;2.03;1.63;;;26.90;99.90;;;;;;5051012;28;20959;-66
2023/09/02 11:08:49;;;;;;;1.27;1.17;;;26.90;99.90;;;;;;5051195;28;20458;-67
2023/09/02 11:11:16;;;;;;;1.70;1.60;;;26.90;99.90;;;;;;5050224;28;20455;-66
2023/09/02 11:14:21;;;;;;;1.40;1.27;;;26.80;99.90;;;;;;5049330;28;20487;-66
2023/09/02 11:17:20;;;;;;;1.97;1.50;;;26.80;99.90;;;;;;5047272;28;20459;-66
2023/09/02 11:19:56;;;;;;;1.40;1.30;;;26.90;99.90;;;;;;5049291;28;20476;-66
2023/09/02 11:22:51;;;;;;;1.63;1.53;;;26.90;99.90;;;;;;5049600;28;20474;-66
2023/09/02 11:25:36;;;;;;;1.87;1.50;;;26.90;99.90;;;;;;5042741;28;20463;-66
2023/09/02 11:28:05;;;;;;;1.83;1.73;;;26.70;99.90;;;;;;5049806;28;20466;-66
2023/09/02 11:30:35;;;;;;;2.23;1.43;;;26.50;99.90;;;;;;5047645;28;20479;-66
2023/09/02 11:33:02;;;;;;;2.10;1.60;;;26.20;99.90;;;;;;5049504;28;20534;-68
2023/09/02 11:35:38;;;;;;;1.73;1.50;;;26.00;99.90;;;;;;5045545;28;20467;-68
2023/09/02 11:38:19;;;;;;;2.90;1.90;;;25.70;99.90;;;;;;5045744;28;20501;-66
2023/09/02 11:40:47;;;;;;;1.90;1.60;;;25.60;99.90;;;;;;5046217;28;20494;-66
2023/09/02 11:43:19;;;;;;;1.50;1.30;;;25.80;99.90;;;;;;5048049;28;20483;-66
2023/09/02 11:45:47;;;;;;;1.70;1.60;;;26.10;99.90;;;;;;5037623;28;21012;-67
2023/09/02 11:48:14;;;;;;;1.93;1.70;;;26.50;99.90;;;;;;5048581;28;20544;-66
2023/09/02 11:50:42;;;;;;;1.80;1.40;;;26.60;99.90;;;;;;5048227;28;20507;-66
2023/09/02 11:53:09;;;;;;;2.20;1.80;;;26.60;99.90;;;;;;5042049;28;20494;-66
2023/09/02 11:55:39;;;;;;;1.50;1.40;;;26.40;99.90;;;;;;5035107;28;20839;-66
2023/09/02 11:58:10;;;;;;;2.47;1.87;;;26.50;99.90;;;;;;5048185;28;20464;-66
2023/09/02 12:00:42;;;;;;;1.73;1.40;;;26.80;99.90;;;;;;5047950;28;20827;-66
2023/09/02 12:03:09;;;;;;;1.60;1.50;;;27.10;99.90;;;;;;5045014;28;20464;-66
2023/09/02 12:05:38;;;;;;;1.60;1.50;;;27.40;99.90;;;;;;5036812;28;20512;-66
2023/09/02 12:08:06;;;;;;;2.20;1.70;;;27.70;99.90;;;;;;5040580;28;20885;-66
2023/09/02 12:10:33;;;;;;;2.47;1.60;;;28.00;99.90;;;;;;5052920;28;20479;-66
2023/09/02 12:13:01;;;;;;;1.73;1.20;;;28.10;99.90;;;;;;5048608;28;20460;-66
2023/09/02 12:15:32;;;;;;;1.50;1.40;;;28.40;99.90;;;;;;5049181;28;20540;-66
2023/09/02 12:17:59;;;;;;;1.67;1.57;;;28.60;99.90;;;;;;5048906;28;20459;-66
2023/09/02 12:20:26;;;;;;;1.80;1.53;;;28.70;99.90;;;;;;5044761;28;20972;-66
2023/09/02 12:22:53;;;;;;;2.00;1.80;;;28.70;99.90;;;;;;5041527;28;20460;-66
2023/09/02 12:25:23;;;;;;;1.80;1.60;;;28.60;99.90;;;;;;5041312;28;20487;-66
2023/09/02 12:27:50;;;;;;;1.67;1.57;;;28.50;99.90;;;;;;5044421;28;20881;-66
2023/09/02 12:30:26;;;;;;;2.37;1.50;;;28.30;99.90;;;;;;5040603;28;20475;-66
2023/09/02 12:32:52;;;;;;;1.93;1.53;;;28.00;99.90;;;;;;5036407;28;20456;-66
2023/09/02 12:35:19;;;;;;;1.83;1.47;;;27.60;99.90;;;;;;5040754;28;20460;-68
2023/09/02 12:37:46;;;;;;;1.70;1.60;;;27.40;99.90;;;;;;5060354;28;20466;-66
2023/09/02 12:40:14;;;;;;;1.73;1.60;;;27.20;99.90;;;;;;5048112;28;20490;-66
2023/09/02 12:42:53;;;;;;;1.80;1.47;;;27.00;99.90;;;;;;5049238;28;20498;-66
2023/09/02 12:45:27;;;;;;;1.50;1.40;;;26.80;99.90;;;;;;5044512;28;20474;-66
2023/09/02 12:47:56;;;;;;;1.57;1.47;;;26.70;99.90;;;;;;5032843;28;20470;-66
2023/09/02 12:50:23;;;;;;;1.50;1.40;;;26.70;99.90;;;;;;5036099;28;20634;-68
2023/09/02 12:52:56;;;;;;;2.10;1.50;;;26.90;99.90;;;;;;5032846;28;20833;-66
2023/09/02 12:55:24;;;;;;;1.60;1.50;;;27.10;99.90;;;;;;5041561;28;20519;-66
2023/09/02 12:57:52;;;;;;;1.30;1.20;;;27.40;99.90;;;;;;5047901;28;20463;-66